createdAt,value
2019-05-20T00:00:15.413Z,96716.39
2019-05-20T00:02:44.865Z,96724.16
2019-05-20T00:05:14.548Z,96724.74
2019-05-20T00:07:44.232Z,96732.78
2019-05-20T00:10:14.639Z,96724.37
2019-05-20T00:12:44.101Z,96726.03
2019-05-20T00:15:13.687Z,96730.34
2019-05-20T00:17:43.151Z,96734.22
2019-05-20T00:20:14.304Z,96744.31
2019-05-20T00:22:43.823Z,96744.48
2019-05-20T00:25:13.367Z,96755.22
2019-05-20T00:27:42.790Z,96754.61
2019-05-20T00:30:12.592Z,96749.86
2019-05-20T00:32:42.538Z,96748.91
2019-05-20T00:35:12.169Z,96746.42
2019-05-20T00:37:41.620Z,96737.88
2019-05-20T00:40:11.720Z,96746.78
2019-05-20T00:42:41.171Z,96740.50
2019-05-20T00:45:10.915Z,96741.66
2019-05-20T00:47:40.373Z,96739.17
2019-05-20T00:50:10.079Z,96738.96
2019-05-20T00:52:39.527Z,96740.45
2019-05-20T00:55:23.530Z,96734.39
2019-05-20T00:57:53.042Z,96736.48
2019-05-20T01:00:22.865Z,96735.28
2019-05-20T01:02:56.986Z,96741.57
2019-05-20T01:05:23.525Z,96735.47
2019-05-20T01:07:52.968Z,96734.27
2019-05-20T01:10:22.522Z,96726.25
2019-05-20T01:12:52.303Z,96733.08
2019-05-20T01:15:22.083Z,96738.70
2019-05-20T01:17:51.533Z,96735.57
2019-05-20T01:20:21.068Z,96734.17
2019-05-20T01:22:50.515Z,96736.03
2019-05-20T01:25:19.977Z,96737.54
2019-05-20T01:27:49.422Z,96739.77
2019-05-20T01:30:19.775Z,96731.41
2019-05-20T01:32:49.245Z,96731.27
2019-05-20T01:35:18.691Z,96721.88
2019-05-20T01:37:48.147Z,96718.98
2019-05-20T01:40:18.132Z,96710.50
2019-05-20T01:42:47.595Z,96705.84
2019-05-20T01:45:17.498Z,96710.16
2019-05-20T01:47:46.953Z,96699.94
2019-05-20T01:50:16.490Z,96684.61
2019-05-20T01:52:45.940Z,96687.42
2019-05-20T01:55:15.564Z,96677.11
2019-05-20T01:57:44.991Z,96676.33
2019-05-20T02:00:15.192Z,96673.64
2019-05-20T02:02:44.612Z,96675.57
2019-05-20T02:05:14.428Z,96678.37
2019-05-20T02:07:43.896Z,96684.61
2019-05-20T02:10:14.007Z,96691.58
2019-05-20T02:12:43.477Z,96704.78
2019-05-20T02:15:30.503Z,96709.66
2019-05-20T02:17:59.965Z,96700.22
2019-05-20T02:20:29.423Z,96708.76
2019-05-20T02:23:17.164Z,96722.81
2019-05-20T02:25:49.384Z,96725.30
2019-05-20T02:28:18.831Z,96729.54
2019-05-20T02:30:48.295Z,96726.97
2019-05-20T02:33:17.748Z,96730.33
2019-05-20T02:35:47.201Z,96724.25
2019-05-20T02:38:16.668Z,96720.38
2019-05-20T02:40:46.123Z,96716.02
2019-05-20T02:43:15.582Z,96707.99
2019-05-20T02:45:45.019Z,96705.45
2019-05-20T02:48:14.552Z,96706.95
2019-05-20T02:50:44.004Z,96701.59
2019-05-20T02:53:13.464Z,96701.84
2019-05-20T02:55:42.931Z,96701.69
2019-05-20T02:58:12.379Z,96695.66
2019-05-20T03:00:41.838Z,96699.24
2019-05-20T03:03:11.279Z,96696.29
2019-05-20T03:05:40.743Z,96696.70
2019-05-20T03:08:10.198Z,96704.16
2019-05-20T03:10:39.889Z,96709.16
2019-05-20T03:13:09.339Z,96700.13
2019-05-20T03:15:38.795Z,96695.17
2019-05-20T03:18:08.250Z,96692.91
2019-05-20T03:20:37.713Z,96698.13
2019-05-20T03:23:07.229Z,96696.62
2019-05-20T03:25:36.687Z,96683.22
2019-05-20T03:28:06.201Z,96686.02
2019-05-20T03:30:35.606Z,96680.14
2019-05-20T03:33:05.141Z,96679.05
2019-05-20T03:35:34.594Z,96669.02
2019-05-20T03:38:04.045Z,96667.36
2019-05-20T03:40:33.501Z,96670.04
2019-05-20T03:43:02.952Z,96672.91
2019-05-20T03:45:32.405Z,96673.78
2019-05-20T03:48:01.904Z,96684.24
2019-05-20T03:50:31.361Z,96693.66
2019-05-20T03:53:00.809Z,96696.97
2019-05-20T03:55:30.336Z,96691.55
2019-05-20T03:57:59.789Z,96691.22
2019-05-20T04:00:45.167Z,96687.34
2019-05-20T04:03:15.423Z,96681.02
2019-05-20T04:05:45.295Z,96674.09
2019-05-20T04:08:15.033Z,96663.80
2019-05-20T04:10:44.437Z,96661.01
2019-05-20T04:13:13.910Z,96653.64
2019-05-20T04:15:43.369Z,96656.85
2019-05-20T04:18:12.887Z,96647.91
2019-05-20T04:20:42.361Z,96649.55
2019-05-20T04:23:11.810Z,96646.19
2019-05-20T04:25:41.261Z,96652.52
2019-05-20T04:28:10.736Z,96661.75
2019-05-20T04:30:40.440Z,96653.62
2019-05-20T04:33:09.902Z,96657.55
2019-05-20T04:35:39.427Z,96655.27
2019-05-20T04:38:08.879Z,96656.38
2019-05-20T04:40:38.336Z,96654.37
2019-05-20T04:43:07.783Z,96653.14
2019-05-20T04:45:37.231Z,96655.73
2019-05-20T04:48:06.697Z,96651.59
2019-05-20T04:50:36.154Z,96653.62
2019-05-20T04:53:05.595Z,96657.80
2019-05-20T04:55:35.063Z,96659.09
2019-05-20T04:58:04.502Z,96660.27
2019-05-20T05:00:55.799Z,96661.86
2019-05-20T05:03:25.310Z,96663.89
2019-05-20T05:05:57.684Z,96661.97
2019-05-20T05:08:27.254Z,96667.20
2019-05-20T05:10:56.802Z,96659.17
2019-05-20T05:13:26.498Z,96660.91
2019-05-20T05:15:56.091Z,96664.34
2019-05-20T05:18:25.620Z,96667.15
2019-05-20T05:20:55.250Z,96662.51
2019-05-20T05:23:25.140Z,96663.52
2019-05-20T05:25:54.588Z,96661.95
2019-05-20T05:28:24.057Z,96664.21
2019-05-20T05:30:53.668Z,96665.67
2019-05-20T05:33:24.815Z,96668.80
2019-05-20T05:35:54.285Z,96674.89
2019-05-20T05:38:24.207Z,96675.88
2019-05-20T05:40:53.708Z,96669.55
2019-05-20T05:43:24.868Z,96670.58
2019-05-20T05:45:54.276Z,96676.75
2019-05-20T05:48:23.737Z,96679.17
2019-05-20T05:50:53.256Z,96672.84
2019-05-20T05:53:22.795Z,96674.86
2019-05-20T05:55:52.241Z,96668.50
2019-05-20T05:58:21.710Z,96672.09
2019-05-20T06:00:51.160Z,96672.55
2019-05-20T06:03:20.746Z,96668.70
2019-05-20T06:05:50.175Z,96673.27
2019-05-20T06:08:19.646Z,96677.10
2019-05-20T06:10:49.173Z,96676.57
2019-05-20T06:13:18.615Z,96678.20
2019-05-20T06:15:48.065Z,96674.62
2019-05-20T06:18:17.533Z,96678.26
2019-05-20T06:20:46.986Z,96681.44
2019-05-20T06:23:16.434Z,96678.80
2019-05-20T06:25:45.905Z,96681.45
2019-05-20T06:28:15.608Z,96684.83
2019-05-20T06:30:46.281Z,96678.77
2019-05-20T06:33:15.867Z,96681.46
2019-05-20T06:35:45.385Z,96684.80
2019-05-20T06:38:16.542Z,96681.47
2019-05-20T06:40:46.032Z,96689.26
2019-05-20T06:43:15.475Z,96689.14
2019-05-20T06:45:44.966Z,96687.27
2019-05-20T06:48:14.420Z,96691.48
2019-05-20T06:50:43.902Z,96687.13
2019-05-20T06:53:13.347Z,96691.36
2019-05-20T06:55:42.781Z,96698.14
2019-05-20T06:58:12.275Z,96696.16
2019-05-20T07:00:41.787Z,96698.99
2019-05-20T07:03:11.253Z,96695.66
2019-05-20T07:05:40.703Z,96697.94
2019-05-20T07:08:10.190Z,96692.81
2019-05-20T07:10:39.633Z,96696.38
2019-05-20T07:13:09.200Z,96698.58
2019-05-20T07:15:38.687Z,96703.45
2019-05-20T07:18:08.144Z,96708.12
2019-05-20T07:20:37.583Z,96707.03
2019-05-20T07:23:07.062Z,96703.66
2019-05-20T07:25:36.607Z,96702.30
2019-05-20T07:28:06.124Z,96702.34
2019-05-20T07:30:35.660Z,96695.86
2019-05-20T07:33:05.111Z,96701.44
2019-05-20T07:35:34.593Z,96696.30
2019-05-20T07:38:07.054Z,96700.52
2019-05-20T07:40:36.704Z,96701.91
2019-05-20T07:43:06.382Z,96695.56
2019-05-20T07:45:36.813Z,96696.00
2019-05-20T07:48:06.961Z,96690.99
2019-05-20T07:50:38.838Z,96687.26
2019-05-20T07:53:10.235Z,96692.95
2019-05-20T07:55:47.402Z,96690.84
2019-05-20T07:58:19.298Z,96689.02
2019-05-20T08:00:48.815Z,96684.13
2019-05-20T08:03:18.640Z,96688.04
2019-05-20T08:05:48.093Z,96685.96
2019-05-20T08:08:17.547Z,96691.80
2019-05-20T08:10:47.104Z,96689.54
2019-05-20T08:13:16.549Z,96684.58
2019-05-20T08:15:46.007Z,96687.92
2019-05-20T08:18:15.466Z,96693.22
2019-05-20T08:20:44.912Z,96693.09
2019-05-20T08:23:14.363Z,96690.61
2019-05-20T08:25:43.840Z,96693.08
2019-05-20T08:28:13.352Z,96692.98
2019-05-20T08:30:42.878Z,96690.05
2019-05-20T08:33:12.341Z,96695.22
2019-05-20T08:35:41.860Z,96687.95
2019-05-20T08:38:11.327Z,96692.84
2019-05-20T08:40:42.533Z,96687.32
2019-05-20T08:43:12.140Z,96683.06
2019-05-20T08:45:41.607Z,96688.43
2019-05-20T08:48:11.054Z,96688.05
2019-05-20T08:50:40.593Z,96690.14
2019-05-20T08:53:10.070Z,96686.06
2019-05-20T08:55:39.585Z,96699.00
2019-05-20T08:58:09.014Z,96697.13
2019-05-20T09:00:38.433Z,96701.33
2019-05-20T09:03:07.989Z,96699.97
2019-05-20T09:05:37.415Z,96695.11
2019-05-20T09:08:07.131Z,96693.28
2019-05-20T09:10:39.484Z,96690.25
2019-05-20T09:13:07.812Z,96694.22
2019-05-20T09:15:37.271Z,96693.09
2019-05-20T09:18:06.728Z,96697.39
2019-05-20T09:20:36.193Z,96689.82
2019-05-20T09:23:05.641Z,96693.36
2019-05-20T09:25:35.226Z,96687.25
2019-05-20T09:28:04.770Z,96687.55
2019-05-20T09:30:34.284Z,96683.57
2019-05-20T09:33:04.184Z,96683.06
2019-05-20T09:35:33.700Z,96684.53
2019-05-20T09:38:17.900Z,96683.19
2019-05-20T09:40:40.085Z,96692.53
2019-05-20T09:43:09.693Z,96686.17
2019-05-20T09:45:39.289Z,96688.47
2019-05-20T09:48:09.545Z,96680.10
2019-05-20T09:50:39.152Z,96684.85
2019-05-20T09:53:08.849Z,96688.93
2019-05-20T09:55:38.637Z,96689.57
2019-05-20T09:58:08.591Z,96696.53
2019-05-20T10:00:38.166Z,96700.56
2019-05-20T10:03:07.931Z,96699.71
2019-05-20T10:05:37.955Z,96700.41
2019-05-20T10:08:07.713Z,96696.34
2019-05-20T10:10:37.218Z,96701.39
2019-05-20T10:13:07.363Z,96698.09
2019-05-20T10:15:37.510Z,96699.80
2019-05-20T10:18:07.035Z,96695.03
2019-05-20T10:20:36.503Z,96700.84
2019-05-20T10:23:05.987Z,96694.66
2019-05-20T10:25:35.486Z,96699.98
2019-05-20T10:28:05.020Z,96699.95
2019-05-20T10:30:34.893Z,96700.42
2019-05-20T10:33:09.262Z,96705.80
2019-05-20T10:35:35.529Z,96713.81
2019-05-20T10:38:05.055Z,96711.67
2019-05-20T10:40:34.580Z,96705.38
2019-05-20T10:43:04.057Z,96708.83
2019-05-20T10:45:34.568Z,96709.50
2019-05-20T10:48:07.978Z,96710.09
2019-05-20T10:50:35.374Z,96716.94
2019-05-20T10:53:04.844Z,96710.88
2019-05-20T10:55:34.299Z,96709.27
2019-05-20T10:58:03.827Z,96717.30
2019-05-20T11:00:33.353Z,96715.29
2019-05-20T11:03:03.013Z,96714.31
2019-05-20T11:05:32.494Z,96718.31
2019-05-20T11:08:01.954Z,96714.57
2019-05-20T11:10:31.393Z,96716.33
2019-05-20T11:13:01.020Z,96725.98
2019-05-20T11:15:30.481Z,96722.52
2019-05-20T11:17:59.937Z,96719.41
2019-05-20T11:20:29.399Z,96716.13
2019-05-20T11:23:01.007Z,96726.09
2019-05-20T11:25:30.289Z,96722.90
2019-05-20T11:27:59.740Z,96726.31
2019-05-20T11:30:29.284Z,96706.70
2019-05-20T11:32:59.056Z,96714.56
2019-05-20T11:35:28.613Z,96710.82
2019-05-20T11:37:58.084Z,96703.97
2019-05-20T11:40:27.530Z,96706.38
2019-05-20T11:42:56.993Z,96708.53
2019-05-20T11:45:26.445Z,96706.58
2019-05-20T11:47:55.934Z,96707.76
2019-05-20T11:50:25.438Z,96702.63
2019-05-20T11:52:54.922Z,96696.83
2019-05-20T11:55:24.391Z,96702.27
2019-05-20T11:57:53.853Z,96693.97
2019-05-20T12:00:24.107Z,96695.42
2019-05-20T12:02:53.818Z,96700.36
2019-05-20T12:05:23.843Z,96700.95
2019-05-20T12:07:53.296Z,96696.70
2019-05-20T12:10:22.834Z,96702.34
2019-05-20T12:12:52.401Z,96700.51
2019-05-20T12:15:21.927Z,96698.68
2019-05-20T12:17:51.400Z,96694.66
2019-05-20T12:20:21.112Z,96694.55
2019-05-20T12:22:50.570Z,96699.52
2019-05-20T12:25:20.020Z,96695.48
2019-05-20T12:27:49.464Z,96690.28
2019-05-20T12:30:19.363Z,96695.63
2019-05-20T12:32:48.800Z,96693.47
2019-05-20T12:35:18.310Z,96693.20
2019-05-20T12:37:47.772Z,96689.55
2019-05-20T12:40:18.893Z,96687.12
2019-05-20T12:42:48.373Z,96685.33
2019-05-20T12:45:19.500Z,96683.97
2019-05-20T12:47:48.947Z,96694.63
2019-05-20T12:50:19.049Z,96693.21
2019-05-20T12:52:48.495Z,96685.30
2019-05-20T12:55:19.748Z,96691.55
2019-05-20T12:57:49.210Z,96687.19
2019-05-20T13:00:20.777Z,96690.87
2019-05-20T13:02:50.263Z,96692.62
2019-05-20T13:05:20.659Z,96694.50
2019-05-20T13:07:50.105Z,96699.91
2019-05-20T13:10:31.302Z,96691.23
2019-05-20T13:12:50.876Z,96703.18
2019-05-20T13:15:20.465Z,96708.61
2019-05-20T13:17:49.930Z,96713.67
2019-05-20T13:20:19.513Z,96710.04
2019-05-20T13:22:48.984Z,96719.84
2019-05-20T13:25:18.499Z,96721.36
2019-05-20T13:27:47.945Z,96724.16
2019-05-20T13:30:19.588Z,96727.14
2019-05-20T13:32:49.068Z,96733.09
2019-05-20T13:35:18.778Z,96733.48
2019-05-20T13:37:48.313Z,96739.72
2019-05-20T13:40:18.361Z,96735.88
2019-05-20T13:42:47.837Z,96735.98
2019-05-20T13:45:19.019Z,96736.27
2019-05-20T13:47:48.561Z,96729.09
2019-05-20T13:50:18.516Z,96733.98
2019-05-20T13:52:47.965Z,96738.80
2019-05-20T13:55:18.287Z,96734.80
2019-05-20T13:57:47.745Z,96733.50
2019-05-20T14:00:17.513Z,96733.71
2019-05-20T14:02:46.961Z,96728.92
2019-05-20T14:05:16.568Z,96731.04
2019-05-20T14:07:46.017Z,96729.30
2019-05-20T14:10:16.168Z,96730.41
2019-05-20T14:12:45.638Z,96731.28
2019-05-20T14:15:15.692Z,96723.14
2019-05-20T14:17:45.196Z,96718.39
2019-05-20T14:20:15.162Z,96723.00
2019-05-20T14:22:44.612Z,96740.78
2019-05-20T14:25:14.435Z,96746.28
2019-05-20T14:27:43.887Z,96740.17
2019-05-20T14:30:13.674Z,96742.64
2019-05-20T14:32:43.147Z,96746.23
2019-05-20T14:35:12.821Z,96752.19
2019-05-20T14:37:42.268Z,96755.71
2019-05-20T14:40:13.241Z,96748.09
2019-05-20T14:42:42.689Z,96757.46
2019-05-20T14:45:12.651Z,96754.44
2019-05-20T14:47:42.186Z,96761.78
2019-05-20T14:50:11.878Z,96765.16
2019-05-20T14:52:41.343Z,96756.14
2019-05-20T14:55:11.703Z,96766.13
2019-05-20T14:57:41.442Z,96764.80
2019-05-20T15:00:11.296Z,96767.67
2019-05-20T15:02:40.999Z,96769.01
2019-05-20T15:05:10.713Z,96760.41
2019-05-20T15:07:40.161Z,96751.87
2019-05-20T15:10:10.143Z,96758.75
2019-05-20T15:12:39.864Z,96761.17
2019-05-20T15:15:10.027Z,96751.02
2019-05-20T15:17:39.537Z,96757.98
2019-05-20T15:20:09.692Z,96750.55
2019-05-20T15:22:39.203Z,96755.33
2019-05-20T15:25:09.782Z,96756.63
2019-05-20T15:27:39.306Z,96754.00
2019-05-20T15:30:10.876Z,96755.57
2019-05-20T15:32:40.346Z,96760.45
2019-05-20T15:35:10.366Z,96758.06
2019-05-20T15:37:39.804Z,96755.88
2019-05-20T15:40:09.703Z,96751.70
2019-05-20T15:42:39.167Z,96745.10
2019-05-20T15:45:11.798Z,96747.17
2019-05-20T15:47:42.239Z,96749.32
2019-05-20T15:50:12.235Z,96744.34
2019-05-20T15:52:41.909Z,96736.40
2019-05-20T15:55:11.621Z,96732.20
2019-05-20T15:57:41.035Z,96720.34
2019-05-20T16:00:11.507Z,96711.88
2019-05-20T16:02:41.210Z,96710.77
2019-05-20T16:05:11.561Z,96714.22
2019-05-20T16:07:41.037Z,96717.63
2019-05-20T16:10:10.628Z,96709.98
2019-05-20T16:12:40.098Z,96715.47
2019-05-20T16:15:10.301Z,96712.68
2019-05-20T16:17:39.723Z,96715.36
2019-05-20T16:20:09.514Z,96723.31
2019-05-20T16:22:38.960Z,96726.62
2019-05-20T16:25:08.768Z,96724.78
2019-05-20T16:27:38.231Z,96731.89
2019-05-20T16:30:11.748Z,96741.13
2019-05-20T16:32:41.199Z,96745.46
2019-05-20T16:35:10.781Z,96753.52
2019-05-20T16:37:40.259Z,96767.38
2019-05-20T16:40:10.750Z,96770.36
2019-05-20T16:42:40.417Z,96766.98
2019-05-20T16:45:12.494Z,96755.05
2019-05-20T16:47:42.070Z,96773.94
2019-05-20T16:50:14.385Z,96767.09
2019-05-20T16:52:43.911Z,96784.62
2019-05-20T16:55:13.692Z,96786.11
2019-05-20T16:57:43.184Z,96782.79
2019-05-20T17:00:29.854Z,96789.59
2019-05-20T17:02:44.757Z,96790.53
2019-05-20T17:05:14.953Z,96793.67
2019-05-20T17:07:44.411Z,96789.91
2019-05-20T17:10:16.503Z,96793.98
2019-05-20T17:12:46.072Z,96803.09
2019-05-20T17:15:15.586Z,96799.58
2019-05-20T17:17:45.034Z,96793.41
2019-05-20T17:20:14.718Z,96790.94
2019-05-20T17:22:44.190Z,96794.69
2019-05-20T17:25:13.710Z,96796.02
2019-05-20T17:27:43.173Z,96793.93
2019-05-20T17:30:13.563Z,96791.45
2019-05-20T17:32:43.013Z,96785.47
2019-05-20T17:35:12.732Z,96777.69
2019-05-20T17:37:42.268Z,96789.56
2019-05-20T17:40:12.128Z,96791.14
2019-05-20T17:42:41.762Z,96800.87
2019-05-20T17:45:13.400Z,96811.45
2019-05-20T17:47:42.852Z,96813.66
2019-05-20T17:50:12.741Z,96824.13
2019-05-20T17:52:42.242Z,96818.64
2019-05-20T17:55:12.196Z,96814.94
2019-05-20T17:57:41.669Z,96805.63
2019-05-20T18:00:13.970Z,96807.87
2019-05-20T18:02:43.424Z,96817.10
2019-05-20T18:05:15.007Z,96817.71
2019-05-20T18:07:44.548Z,96811.66
2019-05-20T18:10:15.615Z,96811.53
2019-05-20T18:12:45.070Z,96808.70
2019-05-20T18:15:15.051Z,96807.80
2019-05-20T18:17:44.510Z,96809.01
2019-05-20T18:20:14.242Z,96812.59
2019-05-20T18:22:43.691Z,96813.55
2019-05-20T18:25:13.225Z,96811.59
2019-05-20T18:27:42.672Z,96798.86
2019-05-20T18:30:13.493Z,96795.83
2019-05-20T18:32:42.943Z,96793.29
2019-05-20T18:35:12.555Z,96787.98
2019-05-20T18:37:42.120Z,96785.49
2019-05-20T18:40:14.234Z,96792.65
2019-05-20T18:42:43.215Z,96793.02
2019-05-20T18:45:13.009Z,96803.86
2019-05-20T18:47:42.545Z,96814.16
2019-05-20T18:50:13.905Z,96818.40
2019-05-20T18:52:43.446Z,96819.70
2019-05-20T18:55:13.130Z,96821.39
2019-05-20T18:57:42.593Z,96828.75
2019-05-20T19:00:12.459Z,96827.92
2019-05-20T19:02:41.910Z,96835.89
2019-05-20T19:05:11.570Z,96837.26
2019-05-20T19:07:41.254Z,96838.19
2019-05-20T19:10:11.410Z,96843.01
2019-05-20T19:12:40.915Z,96847.17
2019-05-20T19:15:12.097Z,96847.52
2019-05-20T19:17:41.625Z,96844.24
2019-05-20T19:20:11.227Z,96863.98
2019-05-20T19:22:40.724Z,96873.98
2019-05-20T19:25:10.397Z,96889.81
2019-05-20T19:27:39.848Z,96906.29
2019-05-20T19:30:11.031Z,96909.38
2019-05-20T19:32:40.551Z,96894.41
2019-05-20T19:35:10.427Z,96891.55
2019-05-20T19:37:39.946Z,96881.25
2019-05-20T19:40:10.151Z,96878.83
2019-05-20T19:42:39.645Z,96879.31
2019-05-20T19:45:09.601Z,96870.98
2019-05-20T19:47:39.139Z,96873.59
2019-05-20T19:50:09.281Z,96877.88
2019-05-20T19:52:38.779Z,96872.04
2019-05-20T19:55:08.516Z,96872.53
2019-05-20T19:57:37.983Z,96869.86
2019-05-20T20:00:12.018Z,96860.34
2019-05-20T20:02:41.514Z,96864.66
2019-05-20T20:05:11.730Z,96864.80
2019-05-20T20:07:41.195Z,96865.59
2019-05-20T20:10:10.922Z,96870.27
2019-05-20T20:12:40.360Z,96865.45
2019-05-20T20:15:16.089Z,96861.72
2019-05-20T20:17:45.606Z,96859.28
2019-05-20T20:20:15.307Z,96856.48
2019-05-20T20:22:44.772Z,96851.34
2019-05-20T20:25:14.744Z,96844.34
2019-05-20T20:27:44.221Z,96843.25
2019-05-20T20:30:14.305Z,96842.05
2019-05-20T20:32:43.750Z,96844.89
2019-05-20T20:35:14.256Z,96841.06
2019-05-20T20:37:43.747Z,96839.03
2019-05-20T20:40:13.328Z,96836.53
2019-05-20T20:42:42.846Z,96845.72
2019-05-20T20:45:13.112Z,96850.56
2019-05-20T20:47:42.613Z,96854.74
2019-05-20T20:50:12.334Z,96848.73
2019-05-20T20:52:41.837Z,96849.89
2019-05-20T20:55:11.744Z,96845.55
2019-05-20T20:57:41.196Z,96844.13
2019-05-20T21:00:11.820Z,96846.08
2019-05-20T21:02:52.908Z,96842.38
2019-05-20T21:05:13.391Z,96848.27
2019-05-20T21:07:43.046Z,96847.45
2019-05-20T21:10:12.725Z,96850.55
2019-05-20T21:12:42.366Z,96851.20
2019-05-20T21:15:12.173Z,96850.62
2019-05-20T21:17:42.090Z,96852.48
2019-05-20T21:20:12.052Z,96849.91
2019-05-20T21:22:43.158Z,96842.95
2019-05-20T21:25:12.656Z,96844.26
2019-05-20T21:27:42.103Z,96837.36
2019-05-20T21:30:11.826Z,96834.69
2019-05-20T21:32:41.289Z,96834.41
2019-05-20T21:35:10.858Z,96830.78
2019-05-20T21:37:40.327Z,96817.34
2019-05-20T21:40:10.016Z,96821.23
2019-05-20T21:42:39.480Z,96828.02
2019-05-20T21:45:09.249Z,96827.83
2019-05-20T21:47:38.783Z,96829.67
2019-05-20T21:50:08.500Z,96839.70
2019-05-20T21:52:37.955Z,96845.91
2019-05-20T21:55:08.222Z,96835.70
2019-05-20T21:57:37.670Z,96835.05
2019-05-20T22:00:08.980Z,96849.51
2019-05-20T22:02:38.427Z,96848.61
2019-05-20T22:05:08.320Z,96839.59
2019-05-20T22:07:37.916Z,96839.13
2019-05-20T22:10:08.337Z,96842.95
2019-05-20T22:12:37.774Z,96844.22
2019-05-20T22:15:07.883Z,96834.03
2019-05-20T22:17:37.324Z,96825.88
2019-05-20T22:20:07.334Z,96815.30
2019-05-20T22:22:38.430Z,96823.82
2019-05-20T22:25:07.929Z,96812.42
2019-05-20T22:27:39.105Z,96811.77
2019-05-20T22:30:09.652Z,96822.44
2019-05-20T22:32:39.115Z,96820.84
2019-05-20T22:35:10.238Z,96815.17
2019-05-20T22:37:39.777Z,96807.53
2019-05-20T22:40:09.599Z,96811.61
2019-05-20T22:42:39.039Z,96808.55
2019-05-20T22:45:09.016Z,96810.52
2019-05-20T22:47:38.458Z,96812.19
2019-05-20T22:50:08.065Z,96804.12
2019-05-20T22:52:37.520Z,96806.80
2019-05-20T22:55:07.508Z,96807.36
2019-05-20T22:57:36.971Z,96801.53
2019-05-20T23:00:07.589Z,96796.11
2019-05-20T23:02:37.026Z,96794.53
2019-05-20T23:05:06.807Z,96789.80
2019-05-20T23:07:36.275Z,96786.56
2019-05-20T23:10:09.397Z,96782.80
2019-05-20T23:12:38.861Z,96793.81
2019-05-20T23:15:08.941Z,96791.15
2019-05-20T23:17:38.389Z,96785.80
2019-05-20T23:20:08.504Z,96786.25
2019-05-20T23:22:37.987Z,96773.36
2019-05-20T23:25:07.672Z,96765.77
2019-05-20T23:27:37.137Z,96754.78
2019-05-20T23:30:08.317Z,96760.10
2019-05-20T23:32:37.777Z,96764.16
2019-05-20T23:35:08.167Z,96755.56
2019-05-20T23:37:37.637Z,96749.32
2019-05-20T23:40:07.690Z,96745.45
2019-05-20T23:42:37.142Z,96754.00
2019-05-20T23:45:09.186Z,96749.89
2019-05-20T23:47:38.632Z,96753.89
2019-05-20T23:50:08.592Z,96754.89
2019-05-20T23:52:38.063Z,96751.09
2019-05-20T23:55:08.721Z,96754.61
2019-05-20T23:57:38.166Z,96756.25
